sensor_id;sensor_type;location;lat;lon;timestamp;P1;durP1;ratioP1;P2;durP2;ratioP2
23404;SDS011;11875;49.356;2.718;2023-03-01T00:01:03;15.67;;;8.40;;
23404;SDS011;11875;49.356;2.718;2023-03-01T00:03:30;15.00;;;8.10;;
23404;SDS011;11875;49.356;2.718;2023-03-01T00:05:57;13.80;;;7.97;;
23404;SDS011;11875;49.356;2.718;2023-03-01T00:08:22;14.23;;;7.50;;
23404;SDS011;11875;49.356;2.718;2023-03-01T00:10:48;10.53;;;6.70;;
23404;SDS011;11875;49.356;2.718;2023-03-01T00:13:14;12.73;;;7.83;;
23404;SDS011;11875;49.356;2.718;2023-03-01T00:15:39;10.47;;;7.50;;
23404;SDS011;11875;49.356;2.718;2023-03-01T00:18:08;11.80;;;7.40;;
23404;SDS011;11875;49.356;2.718;2023-03-01T00:20:34;11.40;;;7.27;;
23404;SDS011;11875;49.356;2.718;2023-03-01T00:23:00;11.87;;;7.40;;
23404;SDS011;11875;49.356;2.718;2023-03-01T00:25:25;12.67;;;7.77;;
23404;SDS011;11875;49.356;2.718;2023-03-01T00:27:51;11.87;;;7.93;;
23404;SDS011;11875;49.356;2.718;2023-03-01T00:30:17;10.33;;;6.97;;
23404;SDS011;11875;49.356;2.718;2023-03-01T00:32:42;11.93;;;7.50;;
23404;SDS011;11875;49.356;2.718;2023-03-01T00:35:08;13.30;;;6.57;;
23404;SDS011;11875;49.356;2.718;2023-03-01T00:37:33;10.47;;;6.87;;
23404;SDS011;11875;49.356;2.718;2023-03-01T00:39:59;12.20;;;7.00;;
23404;SDS011;11875;49.356;2.718;2023-03-01T00:42:24;11.43;;;6.77;;
23404;SDS011;11875;49.356;2.718;2023-03-01T00:44:50;11.87;;;6.80;;
23404;SDS011;11875;49.356;2.718;2023-03-01T00:47:16;9.77;;;6.23;;
23404;SDS011;11875;49.356;2.718;2023-03-01T00:49:41;10.07;;;6.60;;
23404;SDS011;11875;49.356;2.718;2023-03-01T00:52:07;10.53;;;6.80;;
23404;SDS011;11875;49.356;2.718;2023-03-01T00:54:32;10.67;;;6.80;;
23404;SDS011;11875;49.356;2.718;2023-03-01T00:56:58;12.13;;;6.80;;
23404;SDS011;11875;49.356;2.718;2023-03-01T00:59:23;9.67;;;6.70;;
23404;SDS011;11875;49.356;2.718;2023-03-01T01:01:49;10.47;;;6.40;;
23404;SDS011;11875;49.356;2.718;2023-03-01T01:04:14;11.60;;;6.67;;
23404;SDS011;11875;49.356;2.718;2023-03-01T01:06:41;11.33;;;6.53;;
23404;SDS011;11875;49.356;2.718;2023-03-01T01:09:09;10.73;;;6.27;;
23404;SDS011;11875;49.356;2.718;2023-03-01T01:11:42;11.67;;;7.40;;
23404;SDS011;11875;49.356;2.718;2023-03-01T01:14:09;9.03;;;6.63;;
23404;SDS011;11875;49.356;2.718;2023-03-01T01:16:35;14.13;;;7.10;;
23404;SDS011;11875;49.356;2.718;2023-03-01T01:19:00;10.47;;;7.00;;
23404;SDS011;11875;49.356;2.718;2023-03-01T01:21:26;13.33;;;7.90;;
23404;SDS011;11875;49.356;2.718;2023-03-01T01:23:53;10.23;;;7.10;;
23404;SDS011;11875;49.356;2.718;2023-03-01T01:26:20;9.00;;;6.80;;
23404;SDS011;11875;49.356;2.718;2023-03-01T01:29:04;10.23;;;6.20;;
23404;SDS011;11875;49.356;2.718;2023-03-01T01:31:31;10.10;;;6.53;;
23404;SDS011;11875;49.356;2.718;2023-03-01T01:33:58;10.67;;;7.07;;
23404;SDS011;11875;49.356;2.718;2023-03-01T01:36:25;13.90;;;6.90;;
23404;SDS011;11875;49.356;2.718;2023-03-01T01:38:51;9.93;;;6.43;;
23404;SDS011;11875;49.356;2.718;2023-03-01T01:41:17;11.93;;;6.47;;
23404;SDS011;11875;49.356;2.718;2023-03-01T01:43:45;11.27;;;6.73;;
23404;SDS011;11875;49.356;2.718;2023-03-01T01:46:25;11.90;;;6.90;;
23404;SDS011;11875;49.356;2.718;2023-03-01T01:48:57;9.57;;;6.50;;
23404;SDS011;11875;49.356;2.718;2023-03-01T01:51:31;12.50;;;6.63;;
23404;SDS011;11875;49.356;2.718;2023-03-01T01:54:05;11.70;;;6.87;;
23404;SDS011;11875;49.356;2.718;2023-03-01T01:56:36;10.10;;;6.53;;
23404;SDS011;11875;49.356;2.718;2023-03-01T01:59:05;14.97;;;6.80;;
23404;SDS011;11875;49.356;2.718;2023-03-01T02:01:31;11.73;;;7.37;;
23404;SDS011;11875;49.356;2.718;2023-03-01T02:03:57;11.90;;;7.13;;
23404;SDS011;11875;49.356;2.718;2023-03-01T02:06:31;9.30;;;6.53;;
23404;SDS011;11875;49.356;2.718;2023-03-01T02:09:02;12.43;;;6.20;;
23404;SDS011;11875;49.356;2.718;2023-03-01T02:11:32;11.83;;;6.67;;
23404;SDS011;11875;49.356;2.718;2023-03-01T02:13:58;10.30;;;7.17;;
23404;SDS011;11875;49.356;2.718;2023-03-01T02:16:24;11.77;;;6.93;;
23404;SDS011;11875;49.356;2.718;2023-03-01T02:18:51;9.30;;;6.73;;
23404;SDS011;11875;49.356;2.718;2023-03-01T02:23:42;9.93;;;6.13;;
23404;SDS011;11875;49.356;2.718;2023-03-01T02:28:45;12.43;;;7.00;;
23404;SDS011;11875;49.356;2.718;2023-03-01T02:31:14;11.07;;;6.77;;
23404;SDS011;11875;49.356;2.718;2023-03-01T02:33:59;9.63;;;6.57;;
23404;SDS011;11875;49.356;2.718;2023-03-01T02:36:30;9.63;;;6.37;;
23404;SDS011;11875;49.356;2.718;2023-03-01T02:38:59;10.30;;;7.13;;
23404;SDS011;11875;49.356;2.718;2023-03-01T02:41:28;11.87;;;7.20;;
23404;SDS011;11875;49.356;2.718;2023-03-01T02:43:59;13.30;;;7.07;;
23404;SDS011;11875;49.356;2.718;2023-03-01T02:46:25;13.47;;;8.10;;
23404;SDS011;11875;49.356;2.718;2023-03-01T02:48:52;11.73;;;7.30;;
23404;SDS011;11875;49.356;2.718;2023-03-01T02:56:38;10.93;;;7.37;;
23404;SDS011;11875;49.356;2.718;2023-03-01T02:59:04;10.73;;;7.50;;
23404;SDS011;11875;49.356;2.718;2023-03-01T03:01:30;13.13;;;7.77;;
23404;SDS011;11875;49.356;2.718;2023-03-01T03:04:09;11.73;;;7.43;;
23404;SDS011;11875;49.356;2.718;2023-03-01T03:06:41;12.07;;;7.50;;
23404;SDS011;11875;49.356;2.718;2023-03-01T03:09:09;12.63;;;7.93;;
23404;SDS011;11875;49.356;2.718;2023-03-01T03:11:34;12.37;;;7.77;;
23404;SDS011;11875;49.356;2.718;2023-03-01T03:14:01;12.37;;;7.70;;
23404;SDS011;11875;49.356;2.718;2023-03-01T03:16:27;11.73;;;8.03;;
23404;SDS011;11875;49.356;2.718;2023-03-01T03:18:54;11.60;;;8.00;;
23404;SDS011;11875;49.356;2.718;2023-03-01T03:21:29;12.13;;;7.53;;
23404;SDS011;11875;49.356;2.718;2023-03-01T03:23:56;11.63;;;7.77;;
23404;SDS011;11875;49.356;2.718;2023-03-01T03:26:22;15.83;;;8.57;;
23404;SDS011;11875;49.356;2.718;2023-03-01T03:28:48;14.20;;;8.83;;
23404;SDS011;11875;49.356;2.718;2023-03-01T03:31:13;11.43;;;8.47;;
23404;SDS011;11875;49.356;2.718;2023-03-01T03:33:39;16.70;;;8.57;;
23404;SDS011;11875;49.356;2.718;2023-03-01T03:36:05;12.43;;;7.70;;
23404;SDS011;11875;49.356;2.718;2023-03-01T03:38:30;12.27;;;8.47;;
23404;SDS011;11875;49.356;2.718;2023-03-01T03:43:30;12.90;;;8.70;;
23404;SDS011;11875;49.356;2.718;2023-03-01T03:45:57;14.23;;;8.53;;
23404;SDS011;11875;49.356;2.718;2023-03-01T03:48:23;16.07;;;9.20;;
23404;SDS011;11875;49.356;2.718;2023-03-01T03:50:50;13.27;;;9.17;;
23404;SDS011;11875;49.356;2.718;2023-03-01T03:53:18;24.83;;;9.90;;
23404;SDS011;11875;49.356;2.718;2023-03-01T03:55:44;19.03;;;10.53;;
23404;SDS011;11875;49.356;2.718;2023-03-01T03:58:14;19.23;;;11.77;;
23404;SDS011;11875;49.356;2.718;2023-03-01T04:00:42;18.57;;;11.23;;
23404;SDS011;11875;49.356;2.718;2023-03-01T04:03:09;19.50;;;11.77;;
23404;SDS011;11875;49.356;2.718;2023-03-01T04:05:36;20.83;;;12.33;;
23404;SDS011;11875;49.356;2.718;2023-03-01T04:08:03;18.77;;;10.97;;
23404;SDS011;11875;49.356;2.718;2023-03-01T04:10:44;19.10;;;10.30;;
23404;SDS011;11875;49.356;2.718;2023-03-01T04:13:13;15.83;;;10.83;;
23404;SDS011;11875;49.356;2.718;2023-03-01T04:15:40;16.70;;;10.93;;
23404;SDS011;11875;49.356;2.718;2023-03-01T04:18:08;17.23;;;11.10;;
23404;SDS011;11875;49.356;2.718;2023-03-01T04:20:36;15.83;;;9.77;;
23404;SDS011;11875;49.356;2.718;2023-03-01T04:28:28;17.87;;;9.83;;
23404;SDS011;11875;49.356;2.718;2023-03-01T04:30:55;15.20;;;9.83;;
23404;SDS011;11875;49.356;2.718;2023-03-01T04:33:23;16.50;;;9.50;;
23404;SDS011;11875;49.356;2.718;2023-03-01T04:35:49;15.90;;;9.77;;
23404;SDS011;11875;49.356;2.718;2023-03-01T04:38:16;14.37;;;9.50;;
23404;SDS011;11875;49.356;2.718;2023-03-01T04:40:43;16.20;;;10.30;;
23404;SDS011;11875;49.356;2.718;2023-03-01T04:43:09;15.17;;;10.00;;
23404;SDS011;11875;49.356;2.718;2023-03-01T04:45:35;15.27;;;10.37;;
23404;SDS011;11875;49.356;2.718;2023-03-01T04:48:02;14.67;;;10.20;;
23404;SDS011;11875;49.356;2.718;2023-03-01T04:50:28;17.80;;;10.77;;
23404;SDS011;11875;49.356;2.718;2023-03-01T04:52:54;13.47;;;9.40;;
23404;SDS011;11875;49.356;2.718;2023-03-01T04:55:23;19.90;;;10.93;;
23404;SDS011;11875;49.356;2.718;2023-03-01T04:57:52;18.37;;;11.63;;
23404;SDS011;11875;49.356;2.718;2023-03-01T05:00:18;17.70;;;11.23;;
23404;SDS011;11875;49.356;2.718;2023-03-01T05:02:48;16.90;;;11.80;;
23404;SDS011;11875;49.356;2.718;2023-03-01T05:05:18;27.77;;;11.47;;
23404;SDS011;11875;49.356;2.718;2023-03-01T05:07:45;19.07;;;11.57;;
23404;SDS011;11875;49.356;2.718;2023-03-01T05:10:11;18.10;;;11.27;;
23404;SDS011;11875;49.356;2.718;2023-03-01T05:12:36;22.13;;;12.50;;
23404;SDS011;11875;49.356;2.718;2023-03-01T05:15:02;18.03;;;11.63;;
23404;SDS011;11875;49.356;2.718;2023-03-01T05:17:32;16.77;;;10.50;;
23404;SDS011;11875;49.356;2.718;2023-03-01T05:19:59;18.53;;;12.00;;
23404;SDS011;11875;49.356;2.718;2023-03-01T05:22:24;21.27;;;12.13;;
23404;SDS011;11875;49.356;2.718;2023-03-01T05:24:50;21.00;;;11.43;;
23404;SDS011;11875;49.356;2.718;2023-03-01T05:27:16;24.03;;;12.00;;
23404;SDS011;11875;49.356;2.718;2023-03-01T05:29:41;18.53;;;12.13;;
23404;SDS011;11875;49.356;2.718;2023-03-01T05:32:07;19.77;;;11.03;;
23404;SDS011;11875;49.356;2.718;2023-03-01T05:34:34;21.87;;;11.23;;
23404;SDS011;11875;49.356;2.718;2023-03-01T05:37:01;20.60;;;11.53;;
23404;SDS011;11875;49.356;2.718;2023-03-01T05:39:28;19.83;;;12.20;;
23404;SDS011;11875;49.356;2.718;2023-03-01T05:41:58;18.37;;;11.63;;
23404;SDS011;11875;49.356;2.718;2023-03-01T05:44:25;18.03;;;10.93;;
23404;SDS011;11875;49.356;2.718;2023-03-01T05:46:51;21.83;;;12.63;;
23404;SDS011;11875;49.356;2.718;2023-03-01T05:49:17;25.60;;;12.63;;
23404;SDS011;11875;49.356;2.718;2023-03-01T05:51:45;16.97;;;11.10;;
23404;SDS011;11875;49.356;2.718;2023-03-01T05:54:14;21.53;;;12.10;;
23404;SDS011;11875;49.356;2.718;2023-03-01T05:56:40;18.37;;;11.83;;
23404;SDS011;11875;49.356;2.718;2023-03-01T05:59:06;19.70;;;12.47;;
23404;SDS011;11875;49.356;2.718;2023-03-01T06:01:32;20.60;;;12.47;;
23404;SDS011;11875;49.356;2.718;2023-03-01T06:03:58;22.50;;;12.87;;
23404;SDS011;11875;49.356;2.718;2023-03-01T06:06:24;20.77;;;12.63;;
23404;SDS011;11875;49.356;2.718;2023-03-01T06:08:51;21.30;;;12.80;;
23404;SDS011;11875;49.356;2.718;2023-03-01T06:11:17;25.80;;;13.50;;
23404;SDS011;11875;49.356;2.718;2023-03-01T06:13:43;19.27;;;12.37;;
23404;SDS011;11875;49.356;2.718;2023-03-01T06:16:09;23.43;;;11.60;;
23404;SDS011;11875;49.356;2.718;2023-03-01T06:18:36;20.07;;;13.07;;
23404;SDS011;11875;49.356;2.718;2023-03-01T06:21:02;21.10;;;14.00;;
23404;SDS011;11875;49.356;2.718;2023-03-01T06:23:29;22.03;;;14.10;;
23404;SDS011;11875;49.356;2.718;2023-03-01T06:25:54;32.53;;;16.87;;
23404;SDS011;11875;49.356;2.718;2023-03-01T06:28:20;41.13;;;22.77;;
23404;SDS011;11875;49.356;2.718;2023-03-01T06:30:46;42.73;;;20.30;;
23404;SDS011;11875;49.356;2.718;2023-03-01T06:33:12;32.47;;;19.67;;
23404;SDS011;11875;49.356;2.718;2023-03-01T06:35:38;24.67;;;14.87;;
23404;SDS011;11875;49.356;2.718;2023-03-01T06:38:04;28.63;;;14.60;;
23404;SDS011;11875;49.356;2.718;2023-03-01T06:40:30;27.20;;;15.37;;
23404;SDS011;11875;49.356;2.718;2023-03-01T06:42:57;24.47;;;14.47;;
23404;SDS011;11875;49.356;2.718;2023-03-01T06:45:24;25.83;;;14.80;;
23404;SDS011;11875;49.356;2.718;2023-03-01T06:47:49;25.80;;;15.30;;
23404;SDS011;11875;49.356;2.718;2023-03-01T06:50:16;27.97;;;15.80;;
23404;SDS011;11875;49.356;2.718;2023-03-01T06:52:42;27.40;;;15.80;;
23404;SDS011;11875;49.356;2.718;2023-03-01T06:55:09;38.17;;;24.60;;
23404;SDS011;11875;49.356;2.718;2023-03-01T06:57:36;28.73;;;15.83;;
23404;SDS011;11875;49.356;2.718;2023-03-01T07:00:05;36.23;;;18.57;;
23404;SDS011;11875;49.356;2.718;2023-03-01T07:02:32;30.80;;;18.73;;
23404;SDS011;11875;49.356;2.718;2023-03-01T07:04:57;33.27;;;17.07;;
23404;SDS011;11875;49.356;2.718;2023-03-01T07:07:23;45.73;;;23.03;;
23404;SDS011;11875;49.356;2.718;2023-03-01T07:09:49;32.70;;;17.53;;
23404;SDS011;11875;49.356;2.718;2023-03-01T07:12:15;46.77;;;21.20;;
23404;SDS011;11875;49.356;2.718;2023-03-01T07:14:41;35.43;;;18.63;;
23404;SDS011;11875;49.356;2.718;2023-03-01T07:17:08;35.97;;;19.40;;
23404;SDS011;11875;49.356;2.718;2023-03-01T07:19:34;29.37;;;16.90;;
23404;SDS011;11875;49.356;2.718;2023-03-01T07:21:59;30.20;;;17.87;;
23404;SDS011;11875;49.356;2.718;2023-03-01T07:24:25;31.53;;;17.40;;
23404;SDS011;11875;49.356;2.718;2023-03-01T07:26:51;26.77;;;16.53;;
23404;SDS011;11875;49.356;2.718;2023-03-01T07:29:17;24.57;;;15.60;;
23404;SDS011;11875;49.356;2.718;2023-03-01T07:31:43;30.73;;;17.53;;
23404;SDS011;11875;49.356;2.718;2023-03-01T07:34:09;29.63;;;17.03;;
23404;SDS011;11875;49.356;2.718;2023-03-01T07:36:35;29.87;;;16.33;;
23404;SDS011;11875;49.356;2.718;2023-03-01T07:39:01;23.57;;;14.93;;
23404;SDS011;11875;49.356;2.718;2023-03-01T07:41:28;30.03;;;15.03;;
23404;SDS011;11875;49.356;2.718;2023-03-01T07:43:54;28.13;;;15.87;;
23404;SDS011;11875;49.356;2.718;2023-03-01T07:46:20;27.83;;;14.53;;
23404;SDS011;11875;49.356;2.718;2023-03-01T07:48:45;24.67;;;15.10;;
23404;SDS011;11875;49.356;2.718;2023-03-01T07:51:11;30.23;;;14.97;;
23404;SDS011;11875;49.356;2.718;2023-03-01T07:53:37;27.43;;;14.93;;
23404;SDS011;11875;49.356;2.718;2023-03-01T07:56:07;24.73;;;14.23;;
23404;SDS011;11875;49.356;2.718;2023-03-01T07:58:35;26.33;;;15.20;;
23404;SDS011;11875;49.356;2.718;2023-03-01T08:01:02;24.43;;;14.67;;
23404;SDS011;11875;49.356;2.718;2023-03-01T08:03:29;25.07;;;17.40;;
23404;SDS011;11875;49.356;2.718;2023-03-01T08:05:54;25.27;;;13.67;;
23404;SDS011;11875;49.356;2.718;2023-03-01T08:08:20;29.83;;;13.70;;
23404;SDS011;11875;49.356;2.718;2023-03-01T08:10:46;22.03;;;12.97;;
23404;SDS011;11875;49.356;2.718;2023-03-01T08:13:11;17.97;;;12.77;;
23404;SDS011;11875;49.356;2.718;2023-03-01T08:15:37;17.57;;;12.53;;
23404;SDS011;11875;49.356;2.718;2023-03-01T08:18:02;17.10;;;12.13;;
23404;SDS011;11875;49.356;2.718;2023-03-01T08:20:28;20.63;;;12.70;;
23404;SDS011;11875;49.356;2.718;2023-03-01T08:22:54;18.80;;;12.93;;
23404;SDS011;11875;49.356;2.718;2023-03-01T08:25:19;18.67;;;12.73;;
23404;SDS011;11875;49.356;2.718;2023-03-01T08:27:45;18.17;;;12.83;;
23404;SDS011;11875;49.356;2.718;2023-03-01T08:30:11;16.40;;;12.43;;
23404;SDS011;11875;49.356;2.718;2023-03-01T08:32:37;23.20;;;13.07;;
23404;SDS011;11875;49.356;2.718;2023-03-01T08:35:03;20.30;;;12.57;;
23404;SDS011;11875;49.356;2.718;2023-03-01T08:37:29;28.53;;;14.23;;
23404;SDS011;11875;49.356;2.718;2023-03-01T08:39:58;18.53;;;12.80;;
23404;SDS011;11875;49.356;2.718;2023-03-01T08:42:24;17.10;;;12.30;;
23404;SDS011;11875;49.356;2.718;2023-03-01T08:44:50;16.73;;;12.20;;
23404;SDS011;11875;49.356;2.718;2023-03-01T08:47:16;16.43;;;12.40;;
23404;SDS011;11875;49.356;2.718;2023-03-01T08:49:42;16.80;;;11.73;;
23404;SDS011;11875;49.356;2.718;2023-03-01T08:52:07;19.73;;;11.87;;
23404;SDS011;11875;49.356;2.718;2023-03-01T08:54:33;16.13;;;11.80;;
23404;SDS011;11875;49.356;2.718;2023-03-01T08:57:01;17.30;;;12.40;;
23404;SDS011;11875;49.356;2.718;2023-03-01T08:59:27;17.10;;;10.93;;
23404;SDS011;11875;49.356;2.718;2023-03-01T09:01:54;13.90;;;10.50;;
23404;SDS011;11875;49.356;2.718;2023-03-01T09:04:20;15.63;;;11.60;;
23404;SDS011;11875;49.356;2.718;2023-03-01T09:06:46;17.60;;;11.30;;
23404;SDS011;11875;49.356;2.718;2023-03-01T09:09:14;14.40;;;10.73;;
23404;SDS011;11875;49.356;2.718;2023-03-01T09:11:42;15.97;;;11.00;;
23404;SDS011;11875;49.356;2.718;2023-03-01T09:14:11;13.80;;;11.07;;
23404;SDS011;11875;49.356;2.718;2023-03-01T09:16:37;17.33;;;11.23;;
23404;SDS011;11875;49.356;2.718;2023-03-01T09:19:03;16.13;;;10.33;;
23404;SDS011;11875;49.356;2.718;2023-03-01T09:21:29;15.60;;;10.57;;
23404;SDS011;11875;49.356;2.718;2023-03-01T09:23:55;15.30;;;10.97;;
23404;SDS011;11875;49.356;2.718;2023-03-01T09:26:22;16.97;;;11.20;;
23404;SDS011;11875;49.356;2.718;2023-03-01T09:28:49;16.07;;;10.60;;
23404;SDS011;11875;49.356;2.718;2023-03-01T09:31:16;17.23;;;11.23;;
23404;SDS011;11875;49.356;2.718;2023-03-01T09:33:45;17.47;;;10.60;;
23404;SDS011;11875;49.356;2.718;2023-03-01T09:36:14;16.23;;;11.27;;
23404;SDS011;11875;49.356;2.718;2023-03-01T09:38:42;25.73;;;11.50;;
23404;SDS011;11875;49.356;2.718;2023-03-01T09:41:18;18.87;;;13.73;;
23404;SDS011;11875;49.356;2.718;2023-03-01T09:44:18;22.77;;;11.80;;
23404;SDS011;11875;49.356;2.718;2023-03-01T09:46:49;19.63;;;11.73;;
23404;SDS011;11875;49.356;2.718;2023-03-01T09:49:20;15.23;;;10.40;;
23404;SDS011;11875;49.356;2.718;2023-03-01T09:51:57;18.17;;;10.53;;
23404;SDS011;11875;49.356;2.718;2023-03-01T09:54:44;19.00;;;11.50;;
23404;SDS011;11875;49.356;2.718;2023-03-01T09:57:17;19.93;;;11.27;;
23404;SDS011;11875;49.356;2.718;2023-03-01T10:03:17;14.13;;;10.47;;
23404;SDS011;11875;49.356;2.718;2023-03-01T10:08:31;17.70;;;11.90;;
23404;SDS011;11875;49.356;2.718;2023-03-01T10:11:05;15.37;;;10.93;;
23404;SDS011;11875;49.356;2.718;2023-03-01T10:13:57;14.83;;;10.60;;
23404;SDS011;11875;49.356;2.718;2023-03-01T10:16:52;18.00;;;11.27;;
23404;SDS011;11875;49.356;2.718;2023-03-01T10:19:28;17.37;;;11.57;;
23404;SDS011;11875;49.356;2.718;2023-03-01T10:21:57;18.10;;;11.97;;
23404;SDS011;11875;49.356;2.718;2023-03-01T10:24:32;21.87;;;12.00;;
23404;SDS011;11875;49.356;2.718;2023-03-01T10:27:05;14.63;;;10.60;;
23404;SDS011;11875;49.356;2.718;2023-03-01T10:29:46;18.23;;;12.07;;
23404;SDS011;11875;49.356;2.718;2023-03-01T10:32:27;16.27;;;12.27;;
23404;SDS011;11875;49.356;2.718;2023-03-01T10:34:54;18.90;;;12.63;;
23404;SDS011;11875;49.356;2.718;2023-03-01T10:37:20;17.10;;;11.60;;
23404;SDS011;11875;49.356;2.718;2023-03-01T10:42:47;17.53;;;12.17;;
23404;SDS011;11875;49.356;2.718;2023-03-01T10:47:57;16.90;;;12.13;;
23404;SDS011;11875;49.356;2.718;2023-03-01T10:50:50;18.27;;;12.03;;
23404;SDS011;11875;49.356;2.718;2023-03-01T10:53:57;15.80;;;11.80;;
23404;SDS011;11875;49.356;2.718;2023-03-01T10:56:22;17.00;;;12.00;;
23404;SDS011;11875;49.356;2.718;2023-03-01T11:01:26;18.70;;;12.53;;
23404;SDS011;11875;49.356;2.718;2023-03-01T11:06:36;19.93;;;12.20;;
23404;SDS011;11875;49.356;2.718;2023-03-01T11:11:45;18.20;;;12.50;;
23404;SDS011;11875;49.356;2.718;2023-03-01T11:14:18;16.93;;;11.10;;
23404;SDS011;11875;49.356;2.718;2023-03-01T11:16:48;15.50;;;10.83;;
23404;SDS011;11875;49.356;2.718;2023-03-01T11:19:22;17.40;;;12.10;;
23404;SDS011;11875;49.356;2.718;2023-03-01T11:24:46;18.07;;;11.13;;
23404;SDS011;11875;49.356;2.718;2023-03-01T11:27:17;16.60;;;11.03;;
23404;SDS011;11875;49.356;2.718;2023-03-01T11:29:45;24.07;;;11.40;;
23404;SDS011;11875;49.356;2.718;2023-03-01T11:32:16;16.73;;;11.60;;
23404;SDS011;11875;49.356;2.718;2023-03-01T11:34:51;16.77;;;11.53;;
23404;SDS011;11875;49.356;2.718;2023-03-01T11:45:15;15.97;;;11.70;;
23404;SDS011;11875;49.356;2.718;2023-03-01T11:47:47;18.20;;;12.00;;
23404;SDS011;11875;49.356;2.718;2023-03-01T12:03:47;19.23;;;11.90;;
23404;SDS011;11875;49.356;2.718;2023-03-01T12:08:54;18.40;;;12.60;;
23404;SDS011;11875;49.356;2.718;2023-03-01T12:17:19;20.00;;;11.80;;
23404;SDS011;11875;49.356;2.718;2023-03-01T12:22:31;15.93;;;11.20;;
23404;SDS011;11875;49.356;2.718;2023-03-01T12:39:15;18.73;;;12.30;;
23404;SDS011;11875;49.356;2.718;2023-03-01T12:44:57;20.23;;;12.93;;
23404;SDS011;11875;49.356;2.718;2023-03-01T12:50:18;18.93;;;12.23;;
23404;SDS011;11875;49.356;2.718;2023-03-01T12:52:51;17.47;;;12.03;;
23404;SDS011;11875;49.356;2.718;2023-03-01T12:55:31;16.83;;;11.57;;
23404;SDS011;11875;49.356;2.718;2023-03-01T13:03:58;18.10;;;12.57;;
23404;SDS011;11875;49.356;2.718;2023-03-01T13:12:44;17.30;;;12.53;;
23404;SDS011;11875;49.356;2.718;2023-03-01T13:15:33;21.23;;;11.90;;
23404;SDS011;11875;49.356;2.718;2023-03-01T13:20:30;19.93;;;12.83;;
23404;SDS011;11875;49.356;2.718;2023-03-01T13:31:09;19.37;;;12.27;;
23404;SDS011;11875;49.356;2.718;2023-03-01T13:33:59;15.97;;;11.90;;
23404;SDS011;11875;49.356;2.718;2023-03-01T13:38:55;19.63;;;12.37;;
23404;SDS011;11875;49.356;2.718;2023-03-01T13:42:25;16.10;;;12.17;;
23404;SDS011;11875;49.356;2.718;2023-03-01T13:46:40;17.23;;;11.93;;
23404;SDS011;11875;49.356;2.718;2023-03-01T13:49:09;17.07;;;12.00;;
23404;SDS011;11875;49.356;2.718;2023-03-01T13:51:39;17.50;;;12.50;;
23404;SDS011;11875;49.356;2.718;2023-03-01T13:54:05;16.70;;;12.40;;
23404;SDS011;11875;49.356;2.718;2023-03-01T13:56:36;19.73;;;12.50;;
23404;SDS011;11875;49.356;2.718;2023-03-01T13:59:04;19.80;;;12.10;;
23404;SDS011;11875;49.356;2.718;2023-03-01T14:01:37;16.77;;;11.90;;
23404;SDS011;11875;49.356;2.718;2023-03-01T14:04:14;18.90;;;11.97;;
23404;SDS011;11875;49.356;2.718;2023-03-01T14:06:47;17.90;;;11.83;;
23404;SDS011;11875;49.356;2.718;2023-03-01T14:09:20;17.30;;;12.13;;
23404;SDS011;11875;49.356;2.718;2023-03-01T14:19:35;19.47;;;11.67;;
23404;SDS011;11875;49.356;2.718;2023-03-01T14:24:32;18.13;;;11.57;;
23404;SDS011;11875;49.356;2.718;2023-03-01T14:27:03;15.73;;;11.37;;
23404;SDS011;11875;49.356;2.718;2023-03-01T14:29:34;15.13;;;11.00;;
23404;SDS011;11875;49.356;2.718;2023-03-01T14:32:15;14.53;;;10.57;;
23404;SDS011;11875;49.356;2.718;2023-03-01T14:34:46;17.43;;;11.60;;
23404;SDS011;11875;49.356;2.718;2023-03-01T14:37:25;16.03;;;10.70;;
23404;SDS011;11875;49.356;2.718;2023-03-01T14:39:57;19.80;;;10.60;;
23404;SDS011;11875;49.356;2.718;2023-03-01T14:42:24;16.70;;;11.87;;
23404;SDS011;11875;49.356;2.718;2023-03-01T14:44:53;18.80;;;11.10;;
23404;SDS011;11875;49.356;2.718;2023-03-01T14:50:09;16.50;;;9.90;;
23404;SDS011;11875;49.356;2.718;2023-03-01T14:52:36;18.97;;;10.90;;
23404;SDS011;11875;49.356;2.718;2023-03-01T14:55:15;15.20;;;10.53;;
23404;SDS011;11875;49.356;2.718;2023-03-01T14:57:47;15.87;;;10.67;;
23404;SDS011;11875;49.356;2.718;2023-03-01T15:00:19;16.23;;;10.63;;
23404;SDS011;11875;49.356;2.718;2023-03-01T15:02:51;14.87;;;10.33;;
23404;SDS011;11875;49.356;2.718;2023-03-01T15:05:39;13.43;;;9.20;;
23404;SDS011;11875;49.356;2.718;2023-03-01T15:08:04;17.13;;;9.87;;
23404;SDS011;11875;49.356;2.718;2023-03-01T15:10:32;13.50;;;9.63;;
23404;SDS011;11875;49.356;2.718;2023-03-01T15:13:13;16.37;;;9.70;;
23404;SDS011;11875;49.356;2.718;2023-03-01T15:15:47;12.33;;;8.07;;
23404;SDS011;11875;49.356;2.718;2023-03-01T15:18:21;15.80;;;9.87;;
23404;SDS011;11875;49.356;2.718;2023-03-01T15:20:51;15.20;;;9.87;;
23404;SDS011;11875;49.356;2.718;2023-03-01T15:25:54;18.20;;;10.60;;
23404;SDS011;11875;49.356;2.718;2023-03-01T15:28:31;15.57;;;9.80;;
23404;SDS011;11875;49.356;2.718;2023-03-01T15:31:41;14.60;;;10.43;;
23404;SDS011;11875;49.356;2.718;2023-03-01T15:33:49;17.50;;;9.73;;
23404;SDS011;11875;49.356;2.718;2023-03-01T15:36:32;14.73;;;9.97;;
23404;SDS011;11875;49.356;2.718;2023-03-01T15:39:03;18.13;;;9.97;;
23404;SDS011;11875;49.356;2.718;2023-03-01T15:41:46;17.63;;;10.20;;
23404;SDS011;11875;49.356;2.718;2023-03-01T15:44:17;18.10;;;10.23;;
23404;SDS011;11875;49.356;2.718;2023-03-01T15:46:50;14.10;;;10.17;;
23404;SDS011;11875;49.356;2.718;2023-03-01T15:49:27;14.60;;;10.00;;
23404;SDS011;11875;49.356;2.718;2023-03-01T15:52:14;14.00;;;9.60;;
23404;SDS011;11875;49.356;2.718;2023-03-01T15:55:15;15.67;;;10.33;;
23404;SDS011;11875;49.356;2.718;2023-03-01T15:57:41;15.63;;;9.67;;
23404;SDS011;11875;49.356;2.718;2023-03-01T16:00:09;15.70;;;10.20;;
23404;SDS011;11875;49.356;2.718;2023-03-01T16:02:38;14.70;;;9.70;;
23404;SDS011;11875;49.356;2.718;2023-03-01T16:05:04;13.90;;;9.60;;
23404;SDS011;11875;49.356;2.718;2023-03-01T16:07:31;15.17;;;9.40;;
23404;SDS011;11875;49.356;2.718;2023-03-01T16:09:56;14.00;;;9.60;;
23404;SDS011;11875;49.356;2.718;2023-03-01T16:12:22;14.97;;;9.20;;
23404;SDS011;11875;49.356;2.718;2023-03-01T16:14:49;15.33;;;8.93;;
23404;SDS011;11875;49.356;2.718;2023-03-01T16:17:15;12.97;;;9.07;;
23404;SDS011;11875;49.356;2.718;2023-03-01T16:19:40;12.17;;;8.93;;
23404;SDS011;11875;49.356;2.718;2023-03-01T16:22:06;15.20;;;9.47;;
23404;SDS011;11875;49.356;2.718;2023-03-01T16:24:34;14.77;;;9.37;;
23404;SDS011;11875;49.356;2.718;2023-03-01T16:27:01;13.13;;;8.93;;
23404;SDS011;11875;49.356;2.718;2023-03-01T16:29:27;14.07;;;9.60;;
23404;SDS011;11875;49.356;2.718;2023-03-01T16:31:54;13.43;;;9.13;;
23404;SDS011;11875;49.356;2.718;2023-03-01T16:34:19;13.77;;;9.70;;
23404;SDS011;11875;49.356;2.718;2023-03-01T16:36:46;13.43;;;9.23;;
23404;SDS011;11875;49.356;2.718;2023-03-01T16:39:12;14.20;;;9.87;;
23404;SDS011;11875;49.356;2.718;2023-03-01T16:41:38;16.83;;;10.20;;
23404;SDS011;11875;49.356;2.718;2023-03-01T16:44:03;14.10;;;9.97;;
23404;SDS011;11875;49.356;2.718;2023-03-01T16:46:29;16.20;;;10.03;;
23404;SDS011;11875;49.356;2.718;2023-03-01T16:48:55;13.73;;;9.03;;
23404;SDS011;11875;49.356;2.718;2023-03-01T16:51:21;19.10;;;10.77;;
23404;SDS011;11875;49.356;2.718;2023-03-01T16:53:48;16.03;;;10.13;;